Time;durP1;ratioP1;P1;durP2;ratioP2;P2;SDS_P1;SDS_P2;PMS_P1;PMS_P2;Temp;Humidity;BMP_temperature;BMP_pressure;BME280_temperature;BME280_humidity;BME280_pressure;Samples;Min_cycle;Max_cycle;Signal;HPM_P1;HPM_P2
2023/07/06 00:01:26;;;;;;;8.63;6.47;;;;;;;19.98;95.15;100108.86;1381970;90;21405;-85
2023/07/06 00:03:56;;;;;;;9.30;5.97;;;;;;;19.97;95.63;100114.47;1373796;89;21516;-86
2023/07/06 00:06:23;;;;;;;7.47;5.97;;;;;;;19.94;95.58;100114.38;1374685;89;21413;-86
2023/07/06 00:08:52;;;;;;;8.08;5.50;;;;;;;19.93;95.62;100118.61;1376705;89;21450;-85
2023/07/06 00:11:20;;;;;;;8.38;6.00;;;;;;;19.88;97.36;100119.77;1376359;89;22330;-86
2023/07/06 00:13:47;;;;;;;8.68;5.75;;;;;;;19.79;97.65;100120.05;1375577;89;21331;-87
2023/07/06 00:16:13;;;;;;;6.05;5.33;;;;;;;19.72;97.69;100111.19;1377353;89;21236;-86
2023/07/06 00:18:41;;;;;;;6.20;5.22;;;;;;;19.65;98.73;100108.20;1377583;89;21332;-85
2023/07/06 00:21:08;;;;;;;9.45;5.33;;;;;;;19.58;99.20;100105.56;1443628;89;21545;-85
2023/07/06 00:23:34;;;;;;;8.90;5.17;;;;;;;19.56;98.97;100108.97;1454960;88;21346;-86
2023/07/06 00:26:01;;;;;;;6.35;5.75;;;;;;;19.56;99.27;100108.97;1448253;90;21969;-85
2023/07/06 00:28:28;;;;;;;9.93;6.08;;;;;;;19.50;99.92;100109.83;1443402;90;21464;-86
2023/07/06 00:31:06;;;;;;;8.45;6.95;;;;;;;19.46;99.33;100111.30;1450035;88;21398;-83
2023/07/06 00:33:26;;;;;;;7.35;5.55;;;;;;;19.41;100.00;100103.06;1450786;89;21434;-86
2023/07/06 00:35:52;;;;;;;6.47;5.40;;;;;;;19.36;99.89;100100.52;1444839;90;21331;-85
2023/07/06 00:38:22;;;;;;;6.87;5.80;;;;;;;19.38;100.00;100100.28;1453352;90;21345;-86
2023/07/06 00:40:52;;;;;;;12.55;5.90;;;;;;;19.38;100.00;100106.47;1449427;90;21368;-85
2023/07/06 00:43:22;;;;;;;12.33;7.08;;;;;;;19.36;100.00;100105.88;1453790;88;22269;-85
2023/07/06 00:45:53;;;;;;;8.80;5.87;;;;;;;19.35;100.00;100104.21;1461902;90;21419;-85
2023/07/06 00:48:32;;;;;;;12.23;6.08;;;;;;;19.30;100.00;100112.59;1448698;90;21457;-84
2023/07/06 00:51:20;;;;;;;10.05;6.28;;;;;;;19.25;100.00;100117.27;1455482;89;21442;-84
2023/07/06 00:53:54;;;;;;;8.23;6.55;;;;;;;19.21;100.00;100122.73;1462307;89;22404;-84
2023/07/06 00:56:25;;;;;;;7.92;5.50;;;;;;;19.17;100.00;100118.84;1449011;89;21390;-84
2023/07/06 00:58:55;;;;;;;6.22;5.40;;;;;;;19.12;100.00;100111.41;1450241;90;21464;-84
2023/07/06 01:01:24;;;;;;;8.08;5.67;;;;;;;19.05;100.00;100115.17;1444380;88;21368;-84
2023/07/06 01:03:54;;;;;;;6.12;5.08;;;;;;;19.02;100.00;100104.84;1450747;88;21382;-83
2023/07/06 01:06:31;;;;;;;7.37;4.97;;;;;;;18.98;100.00;100097.73;1448381;90;21405;-84
2023/07/06 01:08:57;;;;;;;7.58;5.15;;;;;;;18.93;100.00;100095.70;1454756;88;21597;-84
2023/07/06 01:11:24;;;;;;;10.30;4.45;;;;;;;18.82;100.00;100097.69;1455722;90;21375;-86
2023/07/06 01:13:53;;;;;;;5.97;5.37;;;;;;;18.72;100.00;100107.45;1448572;90;21493;-85
2023/07/06 01:16:43;;;;;;;5.92;5.33;;;;;;;18.59;100.00;100118.73;1450034;88;21530;-84
2023/07/06 01:19:40;;;;;;;8.30;5.37;;;;;;;18.55;100.00;100117.47;1451773;88;22017;-82
2023/07/06 01:22:13;;;;;;;13.80;6.37;;;;;;;18.54;100.00;100123.88;1451938;88;21508;-81
2023/07/06 01:25:02;;;;;;;6.87;6.03;;;;;;;18.56;100.00;100137.88;1450172;89;21367;-80
2023/07/06 01:27:37;;;;;;;9.60;6.03;;;;;;;18.60;100.00;100147.98;1447952;88;21434;-82
2023/07/06 01:30:36;;;;;;;8.70;5.63;;;;;;;18.65;100.00;100147.38;1452074;89;21420;-83
2023/07/06 01:33:07;;;;;;;9.90;6.63;;;;;;;18.69;100.00;100149.94;1454888;89;21516;-83
2023/07/06 01:35:45;;;;;;;8.47;7.10;;;;;;;18.71;100.00;100155.92;1451020;89;22342;-82
2023/07/06 01:38:12;;;;;;;8.23;6.60;;;;;;;18.73;100.00;100157.89;1451951;89;21449;-82
2023/07/06 01:40:40;;;;;;;13.23;7.57;;;;;;;18.73;100.00;100159.23;1454298;89;21560;-83
2023/07/06 01:43:06;;;;;;;14.00;8.00;;;;;;;18.71;100.00;100151.91;1452722;89;21383;-83
2023/07/06 01:45:35;;;;;;;8.50;7.57;;;;;;;18.68;100.00;100149.64;1451384;89;21427;-81
2023/07/06 01:48:10;;;;;;;8.53;6.80;;;;;;;18.68;100.00;100153.14;1454161;89;21449;-79
2023/07/06 01:51:06;;;;;;;8.57;7.00;;;;;;;18.67;100.00;100153.33;1455419;90;21391;-80
2023/07/06 01:53:40;;;;;;;11.30;7.30;;;;;;;18.71;100.00;100151.91;1449190;89;22248;-81
2023/07/06 01:56:21;;;;;;;11.73;7.43;;;;;;;18.75;100.00;100142.44;1458605;89;21368;-82
2023/07/06 01:59:00;;;;;;;;;;;;;;;18.77;100.00;100140.90;1458269;89;21457;-81
2023/07/06 02:01:40;;;;;;;10.53;6.93;;;;;;;18.78;100.00;100143.36;1450968;89;20336;-83
2023/07/06 02:04:08;;;;;;;12.10;7.87;;;;;;;18.80;100.00;100143.16;1451810;89;22329;-83
2023/07/06 02:06:38;;;;;;;15.53;8.17;;;;;;;18.79;100.00;100145.52;1446842;89;21331;-81
2023/07/06 02:09:05;;;;;;;13.30;7.72;;;;;;;18.77;100.00;100148.42;1453613;89;21626;-81
2023/07/06 02:11:33;;;;;;;11.53;8.03;;;;;;;18.80;100.00;100152.55;1444114;89;22182;-82
2023/07/06 02:13:59;;;;;;;13.87;8.23;;;;;;;18.79;100.00;100151.73;1452933;89;21426;-82
2023/07/06 02:16:26;;;;;;;7.43;6.63;;;;;;;18.78;100.00;100161.30;1448271;89;22211;-82
2023/07/06 02:18:53;;;;;;;10.37;6.60;;;;;;;18.70;100.00;100153.77;1447098;89;21427;-80
2023/07/06 02:21:20;;;;;;;14.03;7.97;;;;;;;18.67;100.00;100156.02;1451989;89;22285;-81
2023/07/06 02:23:47;;;;;;;15.73;7.20;;;;;;;18.63;100.00;100148.09;1448108;89;21523;-80
2023/07/06 02:26:13;;;;;;;15.57;7.30;;;;;;;18.60;100.00;100146.64;1447743;88;21830;-84
2023/07/06 02:28:42;;;;;;;8.50;6.87;;;;;;;18.60;100.00;100143.14;1455159;90;21404;-84
2023/07/06 02:31:09;;;;;;;7.92;6.92;;;;;;;18.58;100.00;100151.38;1447586;90;22359;-84
2023/07/06 02:33:35;;;;;;;9.97;7.40;;;;;;;18.60;100.00;100148.50;1453672;88;21486;-84
2023/07/06 02:36:01;;;;;;;8.63;7.27;;;;;;;18.59;100.00;100139.64;1459032;90;22388;-84
2023/07/06 02:38:30;;;;;;;10.30;7.27;;;;;;;18.55;100.00;100138.91;1459062;88;21908;-84
2023/07/06 02:41:04;;;;;;;8.83;6.67;;;;;;;18.51;100.00;100136.35;1455852;88;21390;-84
2023/07/06 02:43:27;;;;;;;8.83;6.83;;;;;;;18.50;100.00;100138.21;1453788;89;21523;-84
2023/07/06 02:45:53;;;;;;;12.70;6.70;;;;;;;18.52;100.00;100140.67;1447286;88;21354;-84
2023/07/06 02:48:20;;;;;;;9.30;7.03;;;;;;;18.55;100.00;100148.30;1458852;90;21518;-84
2023/07/06 02:50:50;;;;;;;10.20;7.97;;;;;;;18.57;100.00;100143.04;1456926;88;21273;-84
2023/07/06 02:53:16;;;;;;;11.85;9.13;;;;;;;18.58;100.00;100150.56;1449040;88;22425;-84
2023/07/06 02:55:46;;;;;;;10.77;8.83;;;;;;;18.54;100.00;100154.17;1449745;88;21354;-84
2023/07/06 02:58:12;;;;;;;8.58;7.42;;;;;;;18.49;100.00;100157.46;1457557;88;21361;-84
2023/07/06 03:00:38;;;;;;;11.00;8.03;;;;;;;18.46;100.00;100165.91;1446185;90;21479;-85
2023/07/06 03:03:09;;;;;;;9.87;7.13;;;;;;;18.47;100.00;100162.22;1442098;90;21392;-85
2023/07/06 03:05:35;;;;;;;8.90;6.63;;;;;;;18.51;100.00;100159.13;1450775;89;21376;-84
2023/07/06 03:08:05;;;;;;;11.97;7.58;;;;;;;18.54;100.00;100159.53;1459362;90;21382;-82
2023/07/06 03:10:32;;;;;;;9.43;6.65;;;;;;;18.54;100.00;100160.88;1442084;90;21523;-82
2023/07/06 03:12:59;;;;;;;9.90;7.00;;;;;;;18.55;100.00;100160.36;1456059;90;22441;-81
2023/07/06 03:15:26;;;;;;;13.93;8.10;;;;;;;18.60;100.00;100155.20;1458078;88;21481;-85
2023/07/06 03:17:52;;;;;;;10.10;6.93;;;;;;;18.64;100.00;100161.79;1457187;88;21413;-83
2023/07/06 03:20:20;;;;;;;14.28;7.30;;;;;;;18.68;100.00;100157.16;1453776;88;21501;-82
2023/07/06 03:22:51;;;;;;;10.63;7.62;;;;;;;18.69;100.00;100150.75;1447964;88;21619;-87
2023/07/06 03:25:25;;;;;;;14.75;8.90;;;;;;;18.66;100.00;100151.70;1454133;88;22351;-87
2023/07/06 03:27:52;;;;;;;11.70;8.03;;;;;;;18.66;100.00;100155.20;1453236;89;21398;-85
2023/07/06 03:30:23;;;;;;;10.80;8.05;;;;;;;18.69;100.00;100156.64;1448445;89;22470;-84
2023/07/06 03:32:49;;;;;;;;;;;;;;;18.73;100.00;100157.89;1461292;89;21657;-86
2023/07/06 03:35:16;;;;;;;13.37;8.80;;;;;;;18.72;100.00;100154.88;1441189;90;20277;-87
2023/07/06 03:37:45;;;;;;;8.18;6.70;;;;;;;18.73;100.00;100149.84;1450136;89;21353;-87
2023/07/06 03:40:12;;;;;;;8.65;7.72;;;;;;;18.78;100.00;100146.56;1445065;90;21528;-87
2023/07/06 03:42:45;;;;;;;13.03;8.23;;;;;;;18.85;100.00;100145.53;1457622;89;22966;-87
2023/07/06 03:45:14;;;;;;;11.83;8.28;;;;;;;18.91;100.00;100146.03;1454343;89;22402;-86
2023/07/06 03:47:42;;;;;;;13.80;7.43;;;;;;;19.00;100.00;100147.16;1453838;89;22101;-87
2023/07/06 03:50:12;;;;;;;9.15;7.08;;;;;;;19.05;100.00;100141.47;1451756;89;22175;-86
2023/07/06 03:52:39;;;;;;;12.37;8.27;;;;;;;19.12;100.00;100138.77;1448971;89;21610;-85
2023/07/06 03:55:14;;;;;;;13.05;7.83;;;;;;;19.19;100.00;100132.88;1451535;89;22434;-85
2023/07/06 03:57:43;;;;;;;11.25;9.30;;;;;;;19.23;100.00;100144.00;1455137;90;22384;-83
2023/07/06 04:00:19;;;;;;;15.72;9.38;;;;;;;19.27;100.00;100142.01;1457716;89;21346;-83
2023/07/06 04:02:40;;;;;;;14.18;9.13;;;;;;;19.33;100.00;100142.53;1456089;90;22528;-83
2023/07/06 04:05:08;;;;;;;9.45;8.45;;;;;;;19.36;100.00;100144.78;1444553;89;21478;-84
2023/07/06 04:07:35;;;;;;;14.98;9.30;;;;;;;19.37;100.00;100143.73;1458812;89;21457;-85
2023/07/06 04:10:03;;;;;;;11.75;8.90;;;;;;;19.39;100.00;100144.36;1452671;89;21360;-83
2023/07/06 04:12:32;;;;;;;13.25;7.67;;;;;;;19.46;100.00;100146.19;1452708;89;21331;-83
2023/07/06 04:14:57;;;;;;;11.00;8.20;;;;;;;19.53;100.00;100156.37;1452339;89;21576;-85
2023/07/06 04:17:23;;;;;;;14.15;8.03;;;;;;;19.53;100.00;100151.00;1459019;89;21382;-85
2023/07/06 04:19:53;;;;;;;10.20;7.90;;;;;;;19.54;100.00;100149.45;1445038;90;21421;-82
2023/07/06 04:22:18;;;;;;;14.55;10.13;;;;;;;19.58;100.00;100151.19;1453621;89;21434;-82
2023/07/06 04:24:44;;;;;;;14.45;9.58;;;;;;;19.64;100.00;100154.36;1449176;89;21442;-83
2023/07/06 04:27:10;;;;;;;9.90;8.55;;;;;;;19.67;100.00;100168.73;1452026;89;21538;-82
2023/07/06 04:29:37;;;;;;;13.62;9.33;;;;;;;19.69;100.00;100169.34;1453293;89;21464;-81
2023/07/06 04:32:04;;;;;;;9.95;7.87;;;;;;;19.77;100.00;100183.05;1450259;88;22566;-82
2023/07/06 04:34:31;;;;;;;9.23;7.60;;;;;;;19.85;100.00;100180.09;1448110;89;21480;-82
2023/07/06 04:36:57;;;;;;;13.48;8.68;;;;;;;19.91;100.00;100179.27;1460436;90;21497;-82
2023/07/06 04:39:23;;;;;;;10.10;8.27;;;;;;;20.00;100.00;100169.91;1450743;89;21331;-81
2023/07/06 04:41:49;;;;;;;10.40;9.30;;;;;;;20.06;100.00;100166.89;1444713;90;21449;-80
2023/07/06 04:44:18;;;;;;;13.60;8.90;;;;;;;20.11;100.00;100168.41;1443823;89;21523;-81
2023/07/06 04:46:44;;;;;;;12.80;8.73;;;;;;;20.09;100.00;100171.83;1453786;89;22271;-81
2023/07/06 04:49:10;;;;;;;14.03;8.55;;;;;;;20.09;100.00;100170.48;1450753;89;21413;-82
2023/07/06 04:51:37;;;;;;;9.73;8.73;;;;;;;20.14;100.00;100169.31;1450191;89;21420;-81
2023/07/06 04:54:04;;;;;;;10.60;8.78;;;;;;;20.19;100.00;100167.30;1454183;89;21368;-82
2023/07/06 04:56:30;;;;;;;12.33;8.70;;;;;;;20.22;100.00;100172.24;1454804;89;21340;-82
2023/07/06 04:58:56;;;;;;;10.55;8.50;;;;;;;20.26;100.00;100178.33;1441670;90;22227;-82
2023/07/06 05:01:24;;;;;;;10.00;8.80;;;;;;;20.33;100.00;100176.92;1447667;88;21444;-83
2023/07/06 05:03:52;;;;;;;16.45;10.08;;;;;;;20.38;100.00;100181.66;1455138;89;21550;-83
2023/07/06 05:06:19;;;;;;;22.40;11.12;;;;;;;20.49;100.00;100183.64;1456988;88;21376;-82
2023/07/06 05:08:49;;;;;;;12.13;9.03;;;;;;;20.62;100.00;100184.08;1447152;89;22279;-82
2023/07/06 05:11:15;;;;;;;18.20;9.07;;;;;;;20.73;100.00;100185.53;1448876;89;21361;-81
2023/07/06 05:13:41;;;;;;;11.15;8.03;;;;;;;20.71;100.00;100187.64;1452866;89;21627;-81
2023/07/06 05:16:08;;;;;;;10.85;8.15;;;;;;;20.80;100.00;100184.64;1456207;89;21346;-82
2023/07/06 05:18:34;;;;;;;16.85;8.75;;;;;;;20.87;100.00;100191.62;1445780;90;21502;-83
2023/07/06 05:21:00;;;;;;;13.98;8.63;;;;;;;20.93;100.00;100191.27;1457743;89;22270;-83
2023/07/06 05:23:28;;;;;;;9.50;8.25;;;;;;;20.96;100.00;100190.29;1455446;90;21530;-83
2023/07/06 05:26:00;;;;;;;16.60;9.40;;;;;;;21.02;100.00;100189.92;1449104;89;21272;-83
2023/07/06 05:28:25;;;;;;;12.05;8.73;;;;;;;21.11;100.00;100186.42;1446519;89;21567;-84
2023/07/06 05:30:52;;;;;;;12.07;8.50;;;;;;;21.21;100.00;100189.44;1455140;89;21413;-85
2023/07/06 05:33:18;;;;;;;11.08;8.08;;;;;;;21.31;100.00;100192.95;1452120;89;21615;-86
2023/07/06 05:35:44;;;;;;;8.90;8.00;;;;;;;21.33;99.65;100196.24;1452233;89;21382;-87
2023/07/06 05:38:10;;;;;;;14.38;8.78;;;;;;;21.44;99.86;100196.87;1450539;89;22278;-87
2023/07/06 05:40:40;;;;;;;10.65;7.70;;;;;;;21.54;99.08;100203.08;1456493;89;21360;-80
2023/07/06 05:43:09;;;;;;;10.40;8.95;;;;;;;21.54;98.12;100205.23;1450665;89;21331;-83
2023/07/06 05:45:35;;;;;;;19.30;9.25;;;;;;;21.57;97.93;100208.00;1449006;89;21588;-84
2023/07/06 05:48:03;;;;;;;10.45;7.92;;;;;;;21.62;98.22;100202.24;1452428;89;21354;-84
2023/07/06 05:50:29;;;;;;;10.78;7.67;;;;;;;21.69;98.19;100201.34;1444269;89;21382;-84
2023/07/06 05:52:55;;;;;;;8.83;7.20;;;;;;;21.74;98.04;100192.06;1455652;89;22402;-84
2023/07/06 05:55:23;;;;;;;13.48;7.45;;;;;;;21.78;97.94;100191.89;1445549;90;21553;-83
2023/07/06 05:57:50;;;;;;;14.00;8.30;;;;;;;21.80;96.99;100196.00;1449412;89;21368;-85
2023/07/06 06:00:16;;;;;;;8.88;7.45;;;;;;;21.87;96.76;100206.72;1450668;88;22410;-84
2023/07/06 06:02:46;;;;;;;10.45;7.28;;;;;;;21.94;96.86;100207.44;1456570;88;21361;-84
2023/07/06 06:05:14;;;;;;;10.03;7.53;;;;;;;22.03;96.94;100204.72;1452317;89;22388;-92
2023/07/06 06:07:45;;;;;;;10.55;7.80;;;;;;;22.18;97.00;100203.02;1454992;89;21258;-91
2023/07/06 06:10:12;;;;;;;14.60;7.47;;;;;;;22.35;96.50;100203.16;1450264;89;21369;-88
2023/07/06 06:12:38;;;;;;;10.72;7.42;;;;;;;22.55;96.30;100210.13;1459472;89;22358;-87
2023/07/06 06:15:08;;;;;;;8.53;7.35;;;;;;;22.59;92.44;100205.92;1455428;89;21420;-86
2023/07/06 06:17:36;;;;;;;11.57;7.78;;;;;;;22.71;93.71;100200.83;1448260;89;21516;-91
2023/07/06 06:20:04;;;;;;;9.93;7.90;;;;;;;22.91;94.18;100204.54;1456976;89;21582;-91
2023/07/06 06:22:30;;;;;;;9.48;7.20;;;;;;;23.04;93.35;100206.73;1449016;89;21383;-90
2023/07/06 06:24:57;;;;;;;13.32;8.28;;;;;;;23.19;93.12;100209.27;1456666;89;21531;-85
2023/07/06 06:27:24;;;;;;;12.33;7.60;;;;;;;23.33;92.54;100209.84;1456653;88;22228;-92
2023/07/06 06:29:50;;;;;;;8.73;7.28;;;;;;;23.42;91.66;100201.66;1453797;88;21449;-88
2023/07/06 06:32:16;;;;;;;8.78;6.47;;;;;;;23.49;91.16;100196.66;1447584;90;21309;-83
2023/07/06 06:34:42;;;;;;;19.92;6.70;;;;;;;23.61;91.23;100200.96;1455888;88;21324;-84
2023/07/06 06:37:16;;;;;;;11.73;7.22;;;;;;;23.78;90.06;100199.71;1454036;88;21410;-84
2023/07/06 06:39:43;;;;;;;10.78;7.60;;;;;;;23.94;90.00;100204.05;1453479;88;21478;-85
2023/07/06 06:42:13;;;;;;;9.93;6.58;;;;;;;24.08;89.28;100206.75;1451645;89;21540;-85
2023/07/06 06:44:38;;;;;;;21.23;7.00;;;;;;;24.19;88.14;100212.64;1459542;89;21449;-86
2023/07/06 06:47:04;;;;;;;10.05;7.17;;;;;;;24.20;87.28;100212.95;1449942;88;22329;-85
2023/07/06 06:49:34;;;;;;;17.37;7.25;;;;;;;24.29;87.19;100210.13;1455278;88;21383;-83
2023/07/06 06:52:02;;;;;;;11.00;6.87;;;;;;;24.27;84.85;100206.84;1452545;88;21579;-82
2023/07/06 06:54:30;;;;;;;11.97;7.65;;;;;;;24.33;86.42;100204.52;1449971;90;22344;-85
2023/07/06 06:56:57;;;;;;;12.98;7.15;;;;;;;24.46;86.87;100199.91;1450358;88;21464;-86
2023/07/06 06:59:23;;;;;;;8.48;6.47;;;;;;;24.51;85.33;100202.17;1451124;90;21361;-86
2023/07/06 07:01:50;;;;;;;11.70;7.62;;;;;;;24.56;85.65;100208.17;1450617;88;21538;-84
2023/07/06 07:04:17;;;;;;;9.25;7.12;;;;;;;24.61;84.89;100204.21;1453320;88;22264;-87
2023/07/06 07:06:44;;;;;;;7.90;6.80;;;;;;;24.60;83.12;100206.64;1453809;88;21472;-86
2023/07/06 07:09:10;;;;;;;11.20;6.90;;;;;;;24.70;84.88;100204.08;1452158;90;21353;-85
2023/07/06 07:11:37;;;;;;;8.28;6.30;;;;;;;24.79;83.97;100207.73;1450103;88;21589;-81
2023/07/06 07:14:06;;;;;;;10.63;7.92;;;;;;;24.74;83.17;100209.30;1453725;88;21456;-82
2023/07/06 07:16:34;;;;;;;10.48;8.28;;;;;;;24.82;84.80;100209.95;1449719;88;21383;-83
2023/07/06 07:19:00;;;;;;;8.35;7.33;;;;;;;24.96;85.19;100208.54;1452149;89;21440;-82
2023/07/06 07:21:26;;;;;;;10.90;7.45;;;;;;;25.10;85.24;100215.25;1446110;88;21367;-84
2023/07/06 07:23:52;;;;;;;9.43;7.12;;;;;;;25.24;84.65;100208.17;1457103;88;22461;-85
2023/07/06 07:26:21;;;;;;;9.43;6.83;;;;;;;25.30;82.57;100213.94;1451936;90;21539;-85
2023/07/06 07:28:50;;;;;;;14.45;7.17;;;;;;;25.36;82.99;100206.16;1463446;88;22262;-84
2023/07/06 07:31:19;;;;;;;10.50;6.95;;;;;;;25.37;82.57;100207.78;1452277;88;22211;-85
2023/07/06 07:33:47;;;;;;;10.78;7.42;;;;;;;25.36;81.50;100209.68;1441627;88;21560;-84
2023/07/06 07:36:19;;;;;;;9.88;6.28;;;;;;;25.39;81.75;100209.17;1449618;90;21449;-84
2023/07/06 07:38:47;;;;;;;10.13;6.87;;;;;;;25.48;81.58;100216.33;1460523;88;21427;-84
2023/07/06 07:41:18;;;;;;;9.78;6.15;;;;;;;25.47;80.61;100218.77;1455924;88;21265;-84
2023/07/06 07:43:43;;;;;;;8.40;7.00;;;;;;;25.58;80.77;100221.08;1454385;89;21449;-83
2023/07/06 07:46:28;;;;;;;9.33;6.37;;;;;;;25.76;81.48;100228.06;1442758;90;21362;-83
2023/07/06 07:48:56;;;;;;;11.18;6.30;;;;;;;25.85;80.27;100221.97;1448623;89;21531;-83
2023/07/06 07:51:26;;;;;;;10.75;7.15;;;;;;;26.02;80.52;100220.53;1441082;88;21552;-82
2023/07/06 07:53:54;;;;;;;8.35;7.08;;;;;;;26.14;79.37;100233.13;1455040;88;21852;-84
2023/07/06 07:56:30;;;;;;;9.35;6.62;;;;;;;26.16;79.01;100221.50;1446726;88;21478;-81
2023/07/06 07:58:56;;;;;;;7.87;6.28;;;;;;;26.28;79.18;100228.94;1460355;88;21568;-83
2023/07/06 08:01:24;;;;;;;8.53;6.83;;;;;;;26.31;78.20;100227.88;1453511;88;21376;-83
2023/07/06 08:03:53;;;;;;;8.05;6.53;;;;;;;26.26;77.95;100222.94;1446732;88;21332;-83
2023/07/06 08:06:19;;;;;;;7.72;5.55;;;;;;;26.34;78.40;100221.13;1457430;88;21501;-83
2023/07/06 08:08:47;;;;;;;7.55;5.95;;;;;;;26.42;77.83;100221.20;1455417;90;21472;-82
2023/07/06 08:11:26;;;;;;;13.48;7.08;;;;;;;26.48;77.19;100222.34;1452920;90;21361;-84
2023/07/06 08:13:55;;;;;;;12.47;6.50;;;;;;;26.60;77.75;100224.91;1452125;88;22344;-83
2023/07/06 08:16:23;;;;;;;8.18;6.50;;;;;;;26.79;78.69;100219.92;1451405;88;21427;-84
2023/07/06 08:18:51;;;;;;;9.35;6.40;;;;;;;26.94;77.06;100219.20;1454854;88;21390;-83
2023/07/06 08:21:17;;;;;;;15.98;6.17;;;;;;;27.05;77.20;100218.20;1458762;90;21382;-84
2023/07/06 08:23:50;;;;;;;8.40;6.58;;;;;;;27.08;74.59;100220.39;1460770;88;22220;-82
2023/07/06 08:26:31;;;;;;;6.97;5.85;;;;;;;27.10;74.85;100221.47;1434866;88;21561;-83
2023/07/06 08:28:57;;;;;;;9.43;6.00;;;;;;;27.14;74.00;100220.70;1445026;89;21999;-85
2023/07/06 08:31:24;;;;;;;11.50;6.40;;;;;;;27.19;75.39;100219.95;1451745;89;21361;-83
2023/07/06 08:33:54;;;;;;;8.90;5.25;;;;;;;27.14;73.80;100217.16;1452948;89;21427;-83
2023/07/06 08:36:21;;;;;;;11.45;6.25;;;;;;;27.14;74.34;100214.45;1454547;89;22944;-83
2023/07/06 08:42:48;;;;;;;9.75;5.83;;;;;;;27.19;74.14;100203.65;1457110;90;22618;-83
2023/07/06 08:45:23;;;;;;;7.12;5.95;;;;;;;27.30;75.02;100203.95;1447430;89;22374;-83
2023/07/06 08:47:51;;;;;;;7.65;5.58;;;;;;;27.34;73.81;100196.12;1450823;89;21692;-84
2023/07/06 08:50:42;;;;;;;9.10;5.90;;;;;;;27.53;74.94;100204.06;1450993;89;22403;-82
2023/07/06 08:53:14;;;;;;;9.33;5.90;;;;;;;27.65;74.11;100202.51;1442604;89;22366;-83
2023/07/06 08:55:43;;;;;;;10.48;5.97;;;;;;;27.84;75.25;100200.13;1450133;89;22336;-83
2023/07/06 08:58:26;;;;;;;9.28;5.97;;;;;;;28.01;75.59;100191.75;1444267;89;21383;-82
2023/07/06 09:01:01;;;;;;;8.03;6.28;;;;;;;28.06;73.52;100197.20;1454134;89;21517;-82
2023/07/06 09:03:30;;;;;;;9.43;5.35;;;;;;;28.22;74.41;100200.75;1446636;89;21531;-82
2023/07/06 09:05:56;;;;;;;6.47;5.70;;;;;;;28.29;72.97;100206.22;1439341;89;21456;-84
2023/07/06 09:08:23;;;;;;;7.22;5.65;;;;;;;28.32;72.69;100203.50;1454882;89;21383;-82
2023/07/06 09:10:49;;;;;;;8.73;5.40;;;;;;;28.40;71.71;100205.69;1443190;89;22358;-83
2023/07/06 09:13:28;;;;;;;6.67;5.70;;;;;;;28.31;71.42;100190.44;1449839;89;21420;-82
2023/07/06 09:16:03;;;;;;;8.95;5.72;;;;;;;28.41;73.20;100191.53;1447386;89;21524;-82
2023/07/06 09:18:31;;;;;;;9.20;7.40;;;;;;;28.48;72.68;100189.37;1456440;89;21634;-82
2023/07/06 09:20:59;;;;;;;9.70;6.03;;;;;;;28.59;72.63;100189.64;1448540;89;21551;-82
2023/07/06 09:23:25;;;;;;;10.63;5.62;;;;;;;28.71;71.21;100186.64;1447265;89;21382;-82
2023/07/06 09:25:55;;;;;;;7.60;5.95;;;;;;;28.78;71.37;100185.28;1454385;89;21553;-83
2023/07/06 09:28:26;;;;;;;8.05;6.45;;;;;;;28.89;70.81;100185.27;1446043;88;21426;-81
2023/07/06 09:31:18;;;;;;;12.00;5.42;;;;;;;28.97;69.58;100184.69;1450662;90;21500;-83
2023/07/06 09:33:48;;;;;;;10.63;5.40;;;;;;;29.02;67.83;100183.32;1447636;90;21522;-84
2023/07/06 09:36:28;;;;;;;7.03;4.95;;;;;;;29.05;68.18;100187.44;1443064;90;21367;-81
2023/07/06 09:39:00;;;;;;;8.15;5.30;;;;;;;29.09;68.04;100187.14;1433835;90;22233;-82
2023/07/06 09:41:29;;;;;;;8.85;4.92;;;;;;;29.24;67.55;100185.20;1457528;89;21427;-82
2023/07/06 09:44:03;;;;;;;;;;;;;;;29.30;64.50;100185.19;1446331;90;21589;-82
2023/07/06 09:46:34;;;;;;;9.20;5.97;;;;;;;29.20;64.99;100185.50;1462839;89;20774;-81
2023/07/06 09:49:00;;;;;;;6.42;5.83;;;;;;;29.36;67.12;100192.25;1437213;88;21545;-83
2023/07/06 09:51:44;;;;;;;7.28;5.20;;;;;;;29.40;64.86;100194.68;1449839;88;21464;-80
2023/07/06 09:54:18;;;;;;;16.50;4.80;;;;;;;29.50;66.17;100191.92;1449361;88;21441;-82
2023/07/06 09:56:48;;;;;;;7.15;5.45;;;;;;;29.70;65.21;100190.23;1442940;88;22197;-82
2023/07/06 09:59:14;;;;;;;9.00;5.28;;;;;;;29.89;65.72;100195.30;1449830;90;21338;-81
2023/07/06 10:02:05;;;;;;;9.43;5.15;;;;;;;30.08;65.36;100195.46;1445701;88;22520;-82
2023/07/06 10:04:48;;;;;;;6.30;5.17;;;;;;;30.21;64.35;100188.54;1386931;90;21627;-82
2023/07/06 10:07:43;;;;;;;5.85;5.08;;;;;;;30.27;62.20;100190.19;1450663;89;21509;-82
2023/07/06 10:10:20;;;;;;;6.58;5.62;;;;;;;30.28;63.07;100189.08;1453327;90;21398;-81
2023/07/06 10:13:09;;;;;;;6.42;5.53;;;;;;;30.46;62.95;100182.91;1453966;89;21442;-80
2023/07/06 10:15:51;;;;;;;10.80;5.15;;;;;;;30.68;62.66;100185.75;1452817;89;21317;-82
2023/07/06 10:18:39;;;;;;;6.45;5.35;;;;;;;30.78;61.76;100187.80;1452617;88;21479;-83
2023/07/06 10:25:46;;;;;;;8.40;5.30;;;;;;;31.15;56.12;100182.27;1470492;89;22410;-82
2023/07/06 10:28:18;;;;;;;8.75;5.25;;;;;;;31.42;55.63;100179.55;1454788;88;22351;-81
2023/07/06 10:30:49;;;;;;;7.50;5.33;;;;;;;31.55;53.05;100180.17;1448896;89;22220;-82
2023/07/06 10:33:33;;;;;;;10.50;4.92;;;;;;;31.69;52.28;100178.91;1460128;88;21405;-82
2023/07/06 10:36:00;;;;;;;6.50;5.47;;;;;;;31.64;51.64;100178.97;1460123;89;21546;-82
2023/07/06 10:38:27;;;;;;;6.60;5.15;;;;;;;31.64;52.61;100183.07;1454681;89;21316;-81
2023/07/06 10:41:14;;;;;;;6.30;5.03;;;;;;;31.69;53.64;100185.19;1439367;89;21316;-81
2023/07/06 10:43:42;;;;;;;5.72;5.03;;;;;;;31.59;53.33;100179.03;1447744;89;21456;-83
2023/07/06 10:46:35;;;;;;;9.60;5.78;;;;;;;30.85;53.19;100182.05;1444681;89;22021;-80
2023/07/06 10:49:25;;;;;;;9.00;6.53;;;;;;;30.85;53.19;100182.05;1449179;89;22942;-81
2023/07/06 10:51:55;;;;;;;14.47;5.22;;;;;;;30.30;55.49;100182.80;1447304;89;21446;-82
2023/07/06 10:54:42;;;;;;;7.60;5.05;;;;;;;29.94;57.34;100186.28;1454050;89;21457;-82
2023/07/06 10:57:11;;;;;;;12.35;5.40;;;;;;;29.67;57.31;100192.42;1445545;90;21655;-81
2023/07/06 10:59:52;;;;;;;27.02;6.87;;;;;;;29.29;57.53;100194.44;1457818;89;21584;-82
2023/07/06 11:02:40;;;;;;;10.78;5.10;;;;;;;29.13;57.53;100204.03;1449180;89;21369;-81
2023/07/06 11:05:29;;;;;;;7.47;5.10;;;;;;;28.89;57.40;100203.79;1450537;89;22433;-82
2023/07/06 11:11:59;;;;;;;9.20;4.67;;;;;;;28.27;58.87;100215.73;1414215;92;21468;-82
2023/07/06 11:14:39;;;;;;;12.00;4.50;;;;;;;27.94;58.67;100219.73;1419317;92;21461;-82
2023/07/06 11:28:53;;;;;;;17.45;3.10;;;;;;;26.57;60.44;100245.78;1387748;93;21475;-80
2023/07/06 11:31:43;;;;;;;11.08;2.67;;;;;;;25.97;61.06;100266.56;1381968;94;21475;-84
2023/07/06 11:34:41;;;;;;;13.98;2.72;;;;;;;25.47;62.67;100271.59;1382002;94;22115;-87
2023/07/06 11:37:16;;;;;;;5.80;2.60;;;;;;;25.14;63.18;100280.05;1384026;94;23453;-88
2023/07/06 11:40:15;;;;;;;7.35;2.83;;;;;;;24.81;64.01;100290.33;1382517;94;22698;-87
2023/07/06 11:43:26;;;;;;;10.28;2.95;;;;;;;24.53;64.86;100281.17;1381951;93;21467;-88
2023/07/06 11:46:26;;;;;;;8.25;2.52;;;;;;;24.23;65.42;100278.70;1443948;90;21376;-83
2023/07/06 11:49:32;;;;;;;7.12;3.10;;;;;;;23.94;65.60;100268.91;1424248;92;21428;-86
2023/07/06 11:51:59;;;;;;;7.30;2.60;;;;;;;23.63;68.07;100266.92;1335556;96;21536;-88
2023/07/06 11:57:42;;;;;;;11.30;3.50;;;;;;;23.33;70.01;100258.95;1341447;97;21766;-86
2023/07/06 12:03:08;;;;;;;10.75;3.67;;;;;;;23.04;73.89;100270.98;1342689;97;21504;-81
2023/07/06 12:05:41;;;;;;;10.78;3.75;;;;;;;22.79;76.69;100268.47;1371823;95;21630;-87
2023/07/06 12:08:28;;;;;;;7.35;3.15;;;;;;;22.60;77.98;100269.59;1375865;95;21369;-86